Time;durP1;ratioP1;P1;durP2;ratioP2;P2;SDS_P1;SDS_P2;PMS_P1;PMS_P2;Temp;Humidity;BMP_temperature;BMP_pressure;BME280_temperature;BME280_humidity;BME280_pressure;Samples;Min_cycle;Max_cycle;Signal;HPM_P1;HPM_P2
2022/11/16 00:01:04;;;;;;;4.75;0.73;;;18.20;84.00;;;;;;5050992;28;20029;-75
2022/11/16 00:03:31;;;;;;;2.47;0.60;;;18.20;83.90;;;;;;5018534;28;20024;-75
2022/11/16 00:06:00;;;;;;;1.88;0.60;;;18.20;83.90;;;;;;5018069;28;20025;-75
2022/11/16 00:08:28;;;;;;;1.23;0.40;;;18.20;83.90;;;;;;5035670;28;20067;-75
2022/11/16 00:10:53;;;;;;;1.25;0.55;;;18.20;83.80;;;;;;5052840;28;20035;-75
2022/11/16 00:13:19;;;;;;;2.10;0.80;;;18.30;83.90;;;;;;5051352;28;20481;-75
2022/11/16 00:15:55;;;;;;;4.68;0.88;;;18.30;83.90;;;;;;5051109;28;20551;-75
2022/11/16 00:18:21;;;;;;;0.95;0.60;;;18.20;83.80;;;;;;5050905;28;20027;-75
2022/11/16 00:20:47;;;;;;;4.30;0.70;;;18.30;83.90;;;;;;5051352;28;20025;-75
2022/11/16 00:23:12;;;;;;;2.33;0.70;;;18.20;83.90;;;;;;5051565;28;20021;-75
2022/11/16 00:25:38;;;;;;;2.67;0.60;;;18.30;83.80;;;;;;5052849;28;20033;-75
2022/11/16 00:28:04;;;;;;;1.40;0.73;;;18.30;83.80;;;;;;5051271;28;20044;-75
2022/11/16 00:30:29;;;;;;;3.17;0.75;;;18.30;83.80;;;;;;5051428;28;20403;-75
2022/11/16 00:32:59;;;;;;;1.27;0.40;;;18.30;83.80;;;;;;5052458;28;20021;-75
2022/11/16 00:35:25;;;;;;;1.45;0.50;;;18.30;83.70;;;;;;5051264;28;20074;-75
2022/11/16 00:37:51;;;;;;;2.53;0.70;;;18.30;83.70;;;;;;5051535;28;20029;-75
2022/11/16 00:40:16;;;;;;;5.90;1.05;;;18.30;83.70;;;;;;5051328;28;20052;-75
2022/11/16 00:42:42;;;;;;;1.77;0.60;;;18.40;83.70;;;;;;5051308;28;20070;-75
2022/11/16 00:45:08;;;;;;;4.40;0.82;;;18.30;83.70;;;;;;5034701;28;20403;-75
2022/11/16 00:47:34;;;;;;;2.58;0.60;;;18.40;83.60;;;;;;5051033;28;20099;-75
2022/11/16 00:49:59;;;;;;;1.40;0.40;;;18.40;83.60;;;;;;5052537;28;20060;-75
2022/11/16 00:52:25;;;;;;;3.50;0.63;;;18.40;83.60;;;;;;5044312;28;20030;-75
2022/11/16 00:54:51;;;;;;;1.88;0.52;;;18.40;84.60;;;;;;5032608;28;20029;-74
2022/11/16 00:57:16;;;;;;;3.47;0.73;;;18.40;83.60;;;;;;5031205;28;20053;-75
2022/11/16 00:59:42;;;;;;;1.88;0.43;;;18.40;83.50;;;;;;5040458;28;20033;-75
2022/11/16 01:02:07;;;;;;;2.90;0.40;;;18.40;83.60;;;;;;5053794;28;20021;-74
2022/11/16 01:04:33;;;;;;;1.52;0.70;;;18.40;83.60;;;;;;5055274;28;20119;-75
2022/11/16 01:06:59;;;;;;;2.08;0.60;;;18.40;83.60;;;;;;5038312;28;20031;-74
2022/11/16 01:09:24;;;;;;;3.53;1.02;;;18.40;83.60;;;;;;5056332;28;20116;-75
2022/11/16 01:12:08;;;;;;;2.78;0.60;;;18.40;83.70;;;;;;5055137;28;20021;-75
2022/11/16 01:14:38;;;;;;;2.72;0.80;;;18.50;83.70;;;;;;5055051;28;20028;-75
2022/11/16 01:17:04;;;;;;;3.15;0.90;;;18.50;83.70;;;;;;5055887;28;20518;-75
2022/11/16 01:19:30;;;;;;;3.63;0.75;;;18.50;83.70;;;;;;5054738;28;20103;-75
2022/11/16 01:21:55;;;;;;;3.50;0.70;;;18.40;83.70;;;;;;5038361;28;20438;-75
2022/11/16 01:24:21;;;;;;;2.00;0.50;;;18.50;83.70;;;;;;5037974;28;20033;-75
2022/11/16 01:26:47;;;;;;;3.00;0.50;;;18.50;83.70;;;;;;5054685;28;20025;-75
2022/11/16 01:29:13;;;;;;;2.10;1.05;;;18.50;83.70;;;;;;5055884;28;20485;-75
2022/11/16 01:31:38;;;;;;;2.22;0.60;;;18.50;83.60;;;;;;5054518;28;20035;-75
2022/11/16 01:34:04;;;;;;;4.90;0.80;;;18.50;83.70;;;;;;5037837;28;20037;-75
2022/11/16 01:36:30;;;;;;;2.83;0.98;;;18.50;83.70;;;;;;5055547;28;20502;-75
2022/11/16 01:38:55;;;;;;;2.70;0.77;;;18.50;83.70;;;;;;5055852;28;20030;-75
2022/11/16 01:41:22;;;;;;;3.55;0.60;;;18.50;83.70;;;;;;5037931;28;20025;-74
2022/11/16 01:43:50;;;;;;;2.92;0.70;;;18.50;83.60;;;;;;5054516;28;20483;-75
2022/11/16 01:46:16;;;;;;;3.00;0.57;;;18.50;83.70;;;;;;5037344;28;20096;-75
2022/11/16 01:48:42;;;;;;;1.27;0.40;;;18.50;83.80;;;;;;5054224;28;20427;-75
2022/11/16 01:51:07;;;;;;;1.55;0.52;;;18.50;83.60;;;;;;5054160;28;20039;-75
2022/11/16 01:53:33;;;;;;;1.95;0.50;;;18.50;83.60;;;;;;5037932;28;20022;-75
2022/11/16 01:55:58;;;;;;;1.65;0.47;;;18.50;83.70;;;;;;5034002;28;20380;-74
2022/11/16 01:58:24;;;;;;;2.85;0.50;;;18.50;83.50;;;;;;5033810;28;20057;-75
2022/11/16 02:00:50;;;;;;;3.45;0.77;;;18.50;83.50;;;;;;5052296;28;20023;-75
2022/11/16 02:03:19;;;;;;;1.55;0.57;;;18.50;83.50;;;;;;5053767;28;20037;-75
2022/11/16 02:05:55;;;;;;;2.33;0.60;;;18.50;83.50;;;;;;5047074;28;20021;-75
2022/11/16 02:11:53;;;;;;;1.92;0.80;;;18.50;83.60;;;;;;5035318;28;20087;-75
2022/11/16 02:14:41;;;;;;;2.20;0.57;;;18.60;83.60;;;;;;5017504;28;20033;-75
2022/11/16 02:17:47;;;;;;;4.97;0.75;;;18.60;83.70;;;;;;5033919;28;20052;-75
2022/11/16 02:20:28;;;;;;;1.52;0.40;;;18.60;83.70;;;;;;5024215;28;20034;-75
2022/11/16 02:23:22;;;;;;;2.72;0.70;;;18.60;83.70;;;;;;5034959;28;20021;-75
2022/11/16 02:25:47;;;;;;;2.47;0.60;;;18.60;83.70;;;;;;5033778;28;20021;-75
2022/11/16 02:28:35;;;;;;;1.90;0.50;;;18.60;83.90;;;;;;5037807;28;20025;-75
2022/11/16 02:31:02;;;;;;;7.40;0.73;;;18.60;83.90;;;;;;5041302;28;20022;-75
2022/11/16 02:33:32;;;;;;;5.82;0.40;;;18.60;83.80;;;;;;5025116;28;20021;-75
2022/11/16 02:35:58;;;;;;;3.63;0.65;;;18.60;83.90;;;;;;5036710;28;20096;-75
2022/11/16 02:38:31;;;;;;;0.85;0.38;;;18.60;83.80;;;;;;5035935;28;20017;-75
2022/11/16 02:41:02;;;;;;;3.40;0.50;;;18.60;83.80;;;;;;5052711;28;20028;-75
2022/11/16 02:43:35;;;;;;;3.55;0.63;;;18.60;83.80;;;;;;5036600;28;20021;-75
2022/11/16 02:46:07;;;;;;;3.45;0.70;;;18.60;83.80;;;;;;5037201;28;20024;-75
2022/11/16 02:48:37;;;;;;;0.73;0.40;;;18.60;83.90;;;;;;5036302;28;20032;-75
2022/11/16 02:51:03;;;;;;;2.33;0.52;;;18.60;84.90;;;;;;5052627;28;20059;-75
2022/11/16 02:53:30;;;;;;;2.65;0.70;;;18.60;83.90;;;;;;5035529;28;20526;-75
2022/11/16 02:55:56;;;;;;;1.85;0.52;;;18.60;83.90;;;;;;5016071;28;20068;-75
2022/11/16 02:58:25;;;;;;;0.65;0.25;;;18.70;83.90;;;;;;5033347;28;20077;-75
2022/11/16 03:00:55;;;;;;;4.60;0.60;;;18.60;83.80;;;;;;5050832;28;20033;-75
2022/11/16 03:03:23;;;;;;;3.03;0.60;;;18.70;85.00;;;;;;5052383;28;20521;-75
2022/11/16 03:05:54;;;;;;;2.38;0.43;;;18.70;83.90;;;;;;5053548;28;20025;-75
2022/11/16 03:08:29;;;;;;;2.05;0.65;;;18.70;83.90;;;;;;5035808;28;20029;-75
2022/11/16 03:13:42;;;;;;;1.35;0.43;;;18.70;83.80;;;;;;5038303;28;20036;-75
2022/11/16 03:16:16;;;;;;;1.88;0.40;;;18.70;83.90;;;;;;5052104;28;20033;-75
2022/11/16 03:18:42;;;;;;;1.58;0.50;;;18.70;83.80;;;;;;5036275;28;20116;-75
2022/11/16 03:21:18;;;;;;;3.83;0.40;;;18.70;83.80;;;;;;5051909;28;20109;-75
2022/11/16 03:23:44;;;;;;;1.92;0.60;;;18.70;83.80;;;;;;5052073;28;20024;-75
2022/11/16 03:26:10;;;;;;;0.95;0.35;;;18.70;83.80;;;;;;5035094;28;20033;-75
2022/11/16 03:28:53;;;;;;;4.93;0.50;;;18.70;83.80;;;;;;5051903;28;20025;-75
2022/11/16 03:31:28;;;;;;;1.05;0.40;;;18.70;83.80;;;;;;5020456;28;20116;-75
2022/11/16 03:33:56;;;;;;;1.60;0.70;;;18.70;84.70;;;;;;5035775;28;20024;-76
2022/11/16 03:36:32;;;;;;;2.05;0.65;;;18.70;83.70;;;;;;5035142;28;20538;-75
2022/11/16 03:39:20;;;;;;;1.58;0.63;;;18.70;83.70;;;;;;5035230;28;20017;-75
2022/11/16 03:41:46;;;;;;;2.15;0.55;;;18.70;83.70;;;;;;5051463;28;20617;-74
2022/11/16 03:44:12;;;;;;;3.67;0.68;;;18.70;83.50;;;;;;5035062;28;20108;-74
2022/11/16 03:46:38;;;;;;;2.97;0.60;;;18.70;83.70;;;;;;5035135;28;20475;-74
2022/11/16 03:49:04;;;;;;;2.03;0.60;;;18.70;83.50;;;;;;5034972;28;20036;-75
2022/11/16 03:51:30;;;;;;;1.75;0.40;;;18.70;83.50;;;;;;5034225;28;20029;-75
2022/11/16 03:53:55;;;;;;;2.75;0.60;;;18.70;83.40;;;;;;5031577;28;20031;-75
2022/11/16 03:56:21;;;;;;;4.75;0.60;;;18.70;83.30;;;;;;5032409;28;20021;-75
2022/11/16 03:58:47;;;;;;;5.70;1.20;;;18.70;83.20;;;;;;5032687;28;20112;-75
2022/11/16 04:01:12;;;;;;;3.85;0.80;;;18.70;83.20;;;;;;5051469;28;20410;-75
2022/11/16 04:03:38;;;;;;;3.70;0.70;;;18.70;83.20;;;;;;5052453;28;20384;-75
2022/11/16 04:25:30;;;;;;;4.10;0.73;;;18.80;83.30;;;;;;5042263;28;20035;-75
2022/11/16 04:28:15;;;;;;;5.05;0.80;;;18.70;83.30;;;;;;5053714;28;20047;-75
2022/11/16 04:39:18;;;;;;;2.33;0.70;;;18.80;83.40;;;;;;5059716;28;20459;-75
2022/11/16 04:47:05;;;;;;;5.47;0.50;;;18.70;83.40;;;;;;5059872;28;20035;-75
2022/11/16 04:47:13;;;;;;;3.70;0.95;;;18.80;84.50;;;;;;5046115;28;20052;-75
2022/11/16 04:49:39;;;;;;;1.65;0.50;;;18.70;83.40;;;;;;5040628;28;20032;-75
2022/11/16 04:52:04;;;;;;;5.45;0.60;;;18.70;83.40;;;;;;5068668;28;20434;-75
2022/11/16 04:54:30;;;;;;;2.53;0.90;;;18.80;83.50;;;;;;5053483;28;20475;-75
2022/11/16 04:56:55;;;;;;;2.88;0.40;;;18.70;83.40;;;;;;5036693;28;20033;-75
2022/11/16 04:59:21;;;;;;;1.30;0.43;;;18.80;83.50;;;;;;5023967;28;20494;-75
2022/11/16 05:04:31;;;;;;;1.83;0.88;;;18.70;83.40;;;;;;5055841;28;20079;-75
2022/11/16 05:06:56;;;;;;;4.97;0.88;;;18.70;83.40;;;;;;5037938;28;20445;-75
2022/11/16 05:09:22;;;;;;;2.42;0.57;;;18.70;83.40;;;;;;5037723;28;20506;-75
2022/11/16 05:11:48;;;;;;;2.63;0.60;;;18.70;83.50;;;;;;5054611;28;20087;-75
2022/11/16 05:14:13;;;;;;;3.55;0.55;;;18.80;83.50;;;;;;5055427;28;20483;-75
2022/11/16 05:16:39;;;;;;;2.75;0.57;;;18.70;83.40;;;;;;5055490;28;20025;-75
2022/11/16 05:21:49;;;;;;;2.80;0.90;;;18.70;83.40;;;;;;5040444;28;20490;-75
2022/11/16 05:24:32;;;;;;;2.58;0.52;;;18.80;83.50;;;;;;5055575;28;20029;-75
2022/11/16 05:26:59;;;;;;;5.32;0.60;;;18.70;83.40;;;;;;5054237;28;20078;-75
2022/11/16 05:29:25;;;;;;;5.10;0.52;;;18.80;83.50;;;;;;5037573;28;20021;-75
2022/11/16 05:31:51;;;;;;;2.88;0.65;;;18.80;83.50;;;;;;5055383;28;20050;-75
2022/11/16 05:34:16;;;;;;;4.85;1.45;;;18.80;83.50;;;;;;5053717;28;20506;-75
2022/11/16 05:36:42;;;;;;;4.55;0.70;;;18.80;83.50;;;;;;5037285;28;20518;-75
2022/11/16 05:39:07;;;;;;;2.38;0.80;;;18.80;83.50;;;;;;5055273;28;20044;-75
2022/11/16 05:41:33;;;;;;;5.95;0.80;;;18.80;83.60;;;;;;5054959;28;20029;-75
2022/11/16 05:43:59;;;;;;;5.15;0.80;;;18.80;83.50;;;;;;5055117;28;20028;-75
2022/11/16 05:46:24;;;;;;;3.70;0.95;;;18.80;83.50;;;;;;5054978;28;20024;-75
2022/11/16 05:48:50;;;;;;;5.60;0.82;;;18.80;83.50;;;;;;5053482;28;20371;-75
2022/11/16 05:51:16;;;;;;;2.63;0.50;;;18.80;83.50;;;;;;5054920;28;20017;-75
2022/11/16 05:53:43;;;;;;;2.38;0.60;;;18.80;83.50;;;;;;5020303;28;20113;-75
2022/11/16 05:56:09;;;;;;;6.25;0.73;;;18.80;83.60;;;;;;5037150;28;20079;-75
2022/11/16 05:58:34;;;;;;;1.95;0.52;;;18.80;83.50;;;;;;5036927;28;20397;-75
2022/11/16 06:01:00;;;;;;;2.58;0.50;;;18.80;83.50;;;;;;5033675;28;20112;-75
2022/11/16 06:03:29;;;;;;;2.80;0.60;;;18.80;83.50;;;;;;5016917;28;20388;-75
2022/11/16 06:05:55;;;;;;;2.10;0.60;;;18.80;83.40;;;;;;5034585;28;20033;-75
2022/11/16 06:08:21;;;;;;;2.72;0.63;;;18.80;83.40;;;;;;5034577;28;20522;-75
2022/11/16 06:10:46;;;;;;;2.42;0.60;;;18.80;83.50;;;;;;5033328;28;20030;-75
2022/11/16 06:13:12;;;;;;;3.75;0.75;;;18.80;83.40;;;;;;5033508;28;20018;-75
2022/11/16 06:15:38;;;;;;;1.92;0.50;;;18.70;83.40;;;;;;5033208;28;20484;-74
2022/11/16 06:18:04;;;;;;;2.85;0.90;;;18.80;83.40;;;;;;5033334;28;20014;-74
2022/11/16 06:20:29;;;;;;;7.30;0.70;;;18.80;83.50;;;;;;5032934;28;20101;-74
2022/11/16 06:22:55;;;;;;;1.95;0.40;;;18.80;83.50;;;;;;5016856;28;20108;-75
2022/11/16 06:25:20;;;;;;;4.93;0.90;;;18.80;83.50;;;;;;5033169;28;20082;-75
2022/11/16 06:27:46;;;;;;;6.28;0.95;;;18.80;83.60;;;;;;5034566;28;20060;-75
2022/11/16 06:30:12;;;;;;;4.50;0.73;;;18.80;83.50;;;;;;5033099;28;20064;-75
2022/11/16 06:32:37;;;;;;;4.93;0.80;;;18.80;83.60;;;;;;5034234;28;20167;-75
2022/11/16 06:35:03;;;;;;;2.90;0.95;;;18.80;83.60;;;;;;5032609;28;20527;-75
2022/11/16 06:37:29;;;;;;;5.07;0.75;;;18.80;83.60;;;;;;5016693;28;20483;-75
2022/11/16 06:39:55;;;;;;;2.75;0.60;;;18.80;83.60;;;;;;5033020;28;20107;-75
2022/11/16 06:42:20;;;;;;;2.33;0.63;;;18.80;83.50;;;;;;5034060;28;20823;-75
2022/11/16 06:44:46;;;;;;;5.43;0.77;;;18.80;83.60;;;;;;5032953;28;20025;-75
2022/11/16 06:47:12;;;;;;;1.95;0.68;;;18.80;83.60;;;;;;5032862;28;20109;-75
2022/11/16 06:49:37;;;;;;;4.05;1.17;;;18.80;83.60;;;;;;5032446;28;20471;-75
2022/11/16 06:52:03;;;;;;;2.55;0.60;;;18.80;83.50;;;;;;5032612;28;20029;-75
2022/11/16 06:54:29;;;;;;;3.63;0.63;;;18.80;83.50;;;;;;5033600;28;20022;-75
2022/11/16 06:56:54;;;;;;;3.30;0.70;;;18.80;83.50;;;;;;5032446;28;20021;-75
2022/11/16 06:59:20;;;;;;;2.53;0.50;;;18.80;83.60;;;;;;5039448;28;20029;-75
2022/11/16 07:01:45;;;;;;;3.63;0.60;;;18.80;83.60;;;;;;5052318;28;20479;-75
2022/11/16 07:04:14;;;;;;;2.53;0.60;;;18.80;83.60;;;;;;5053130;28;20029;-75
2022/11/16 07:06:40;;;;;;;3.85;0.50;;;18.80;83.60;;;;;;5053493;28;20028;-75
2022/11/16 07:09:06;;;;;;;1.48;0.45;;;18.80;83.60;;;;;;5053455;28;20025;-75
2022/11/16 07:11:33;;;;;;;2.95;0.70;;;18.80;83.60;;;;;;5052143;28;20024;-76
2022/11/16 07:13:59;;;;;;;2.53;0.65;;;18.80;83.60;;;;;;5035712;28;20471;-76
2022/11/16 07:16:24;;;;;;;4.75;0.98;;;18.80;83.60;;;;;;5035658;28;20028;-76
2022/11/16 07:18:50;;;;;;;3.80;0.75;;;18.70;79.00;;;;;;5051797;28;20116;-76
2022/11/16 07:21:16;;;;;;;3.83;0.60;;;18.60;78.50;;;;;;5052222;28;20021;-77
2022/11/16 07:23:42;;;;;;;4.15;0.80;;;18.50;79.10;;;;;;5051712;28;20017;-77
2022/11/16 07:26:08;;;;;;;5.25;1.17;;;18.50;79.10;;;;;;5035297;28;20511;-76
2022/11/16 07:28:34;;;;;;;2.88;0.65;;;18.50;79.20;;;;;;5052013;28;20029;-76
2022/11/16 07:31:10;;;;;;;3.72;0.80;;;18.40;78.90;;;;;;5050924;28;20521;-76
2022/11/16 07:33:36;;;;;;;4.15;1.00;;;18.40;79.10;;;;;;5044637;28;20373;-76
2022/11/16 07:36:08;;;;;;;3.50;0.98;;;18.40;79.00;;;;;;5042688;28;20055;-76
2022/11/16 07:38:34;;;;;;;;;;;18.40;79.10;;;;;;5032395;28;20018;-76
2022/11/16 07:41:03;;;;;;;3.47;0.63;;;18.30;79.20;;;;;;5032943;28;19909;-76
2022/11/16 07:43:30;;;;;;;4.90;1.00;;;18.30;79.00;;;;;;5031753;28;20006;-76
2022/11/16 07:46:16;;;;;;;4.38;0.77;;;18.30;79.10;;;;;;5032812;28;20064;-76
2022/11/16 07:48:42;;;;;;;11.80;1.65;;;18.30;79.10;;;;;;5032363;28;20062;-76
2022/11/16 07:51:09;;;;;;;49.22;7.28;;;18.30;79.10;;;;;;5015246;28;20480;-76
2022/11/16 07:53:35;;;;;;;69.00;9.30;;;18.30;79.40;;;;;;5029727;28;20036;-76
2022/11/16 07:56:01;;;;;;;25.30;4.25;;;18.30;80.10;;;;;;5030517;28;20029;-76
2022/11/16 07:58:27;;;;;;;20.85;3.60;;;18.20;80.30;;;;;;5031004;28;20047;-76
2022/11/16 08:00:53;;;;;;;28.40;4.40;;;18.30;80.30;;;;;;5050101;28;20471;-76
2022/11/16 08:03:19;;;;;;;28.33;3.95;;;18.30;80.30;;;;;;5034360;28;20031;-76
2022/11/16 08:05:44;;;;;;;31.05;4.25;;;18.20;80.30;;;;;;5050954;28;20096;-76
2022/11/16 08:08:10;;;;;;;26.30;3.90;;;18.20;80.30;;;;;;5034461;28;20102;-76
2022/11/16 08:10:36;;;;;;;25.15;4.43;;;18.20;80.20;;;;;;5034339;28;20029;-76
2022/11/16 08:13:02;;;;;;;29.13;4.35;;;18.20;80.30;;;;;;5034120;28;20025;-76
2022/11/16 08:15:27;;;;;;;19.58;3.47;;;18.20;80.20;;;;;;5051088;28;20036;-76
2022/11/16 08:17:53;;;;;;;25.15;3.80;;;18.20;80.30;;;;;;5051216;28;20025;-76
2022/11/16 08:20:19;;;;;;;19.15;2.85;;;18.20;80.30;;;;;;5050593;28;20017;-76
2022/11/16 08:22:44;;;;;;;21.20;3.58;;;18.20;80.40;;;;;;5034296;28;20075;-76
2022/11/16 08:25:10;;;;;;;20.27;3.63;;;18.20;80.30;;;;;;5050961;28;20399;-76
2022/11/16 08:27:36;;;;;;;22.48;3.53;;;18.20;80.30;;;;;;5050934;28;20029;-76
2022/11/16 08:30:02;;;;;;;19.33;3.17;;;18.20;80.20;;;;;;5050814;28;20029;-76
2022/11/16 08:32:29;;;;;;;18.23;3.80;;;18.20;80.20;;;;;;5034649;28;20021;-76
2022/11/16 08:34:55;;;;;;;13.95;2.85;;;18.20;80.20;;;;;;5050727;28;20033;-76
2022/11/16 08:37:21;;;;;;;17.92;3.17;;;18.20;80.20;;;;;;5034445;28;20056;-76
2022/11/16 08:39:47;;;;;;;16.95;3.33;;;18.20;80.20;;;;;;5052106;28;20464;-76
2022/11/16 08:42:12;;;;;;;16.65;3.75;;;18.10;80.10;;;;;;5050982;28;20009;-76
2022/11/16 08:44:38;;;;;;;17.63;3.30;;;18.10;80.10;;;;;;5050818;28;20032;-76
2022/11/16 08:47:04;;;;;;;15.38;4.20;;;18.10;80.10;;;;;;5051828;28;20029;-76
2022/11/16 08:49:29;;;;;;;21.70;3.20;;;18.10;80.10;;;;;;5050773;28;20036;-76
2022/11/16 08:51:55;;;;;;;17.65;3.42;;;18.10;80.10;;;;;;5030152;28;20100;-76
2022/11/16 08:54:20;;;;;;;15.60;3.15;;;18.10;80.10;;;;;;5030926;28;20095;-76
2022/11/16 08:56:46;;;;;;;15.50;3.40;;;18.10;80.10;;;;;;5030860;28;20045;-76
2022/11/16 08:59:12;;;;;;;19.90;3.47;;;18.10;80.10;;;;;;5035267;28;20052;-76
2022/11/16 09:01:38;;;;;;;16.58;3.10;;;18.10;80.00;;;;;;5050714;28;20048;-76
2022/11/16 09:04:04;;;;;;;14.73;3.28;;;18.10;80.00;;;;;;5050557;28;20571;-76
2022/11/16 09:06:30;;;;;;;13.52;3.03;;;18.10;80.00;;;;;;5050653;28;20052;-76
2022/11/16 09:08:56;;;;;;;21.17;3.42;;;18.10;80.00;;;;;;5050374;28;20017;-76
2022/11/16 09:11:23;;;;;;;16.80;3.50;;;18.10;80.00;;;;;;5050567;28;20029;-76
2022/11/16 09:13:50;;;;;;;17.02;3.22;;;18.10;80.00;;;;;;5050346;28;20017;-76
2022/11/16 09:16:16;;;;;;;16.80;3.47;;;18.10;80.00;;;;;;5050266;28;20044;-76
2022/11/16 09:18:42;;;;;;;25.67;4.20;;;18.10;79.90;;;;;;5034008;28;20021;-76
2022/11/16 09:21:08;;;;;;;14.85;3.40;;;18.10;79.90;;;;;;5050586;28;20040;-76
2022/11/16 09:23:33;;;;;;;15.05;3.05;;;18.10;79.90;;;;;;5036295;28;20090;-76
2022/11/16 09:26:01;;;;;;;15.10;2.65;;;18.10;79.80;;;;;;5055176;28;20033;-76
2022/11/16 09:28:26;;;;;;;18.80;3.13;;;18.10;79.90;;;;;;5037528;28;20529;-76
2022/11/16 09:30:52;;;;;;;19.10;3.63;;;18.10;79.80;;;;;;5055318;28;20025;-76
2022/11/16 09:33:18;;;;;;;18.60;3.28;;;18.00;79.80;;;;;;5037472;28;20025;-76
2022/11/16 09:35:43;;;;;;;17.58;3.58;;;18.00;79.80;;;;;;5053847;28;20040;-76
2022/11/16 09:38:09;;;;;;;12.82;2.65;;;18.00;79.70;;;;;;5055237;28;20017;-76
2022/11/16 09:40:39;;;;;;;15.40;3.25;;;18.10;79.80;;;;;;5053933;28;20021;-76
2022/11/16 09:43:13;;;;;;;17.50;2.78;;;18.00;79.70;;;;;;5037227;28;20499;-76
2022/11/16 09:45:45;;;;;;;15.90;2.65;;;18.00;79.70;;;;;;5053856;28;20029;-76
2022/11/16 09:48:11;;;;;;;17.42;2.80;;;18.00;79.80;;;;;;5053739;28;20437;-76
2022/11/16 09:50:48;;;;;;;23.48;3.80;;;18.00;79.70;;;;;;5037368;28;20430;-76
2022/11/16 09:53:17;;;;;;;13.05;2.92;;;18.00;79.70;;;;;;5006329;28;20037;-76
2022/11/16 09:55:52;;;;;;;15.25;2.65;;;18.00;79.70;;;;;;5034651;28;20510;-76
2022/11/16 09:58:55;;;;;;;10.50;2.45;;;18.00;79.70;;;;;;5033311;28;20033;-76
2022/11/16 10:01:25;;;;;;;10.30;2.05;;;18.00;79.70;;;;;;5034979;28;20034;-76
2022/11/16 10:03:58;;;;;;;11.68;2.75;;;18.00;79.70;;;;;;5034765;28;20071;-76
2022/11/16 10:06:27;;;;;;;;;;;18.00;79.70;;;;;;5034055;28;20026;-76
2022/11/16 10:08:55;;;;;;;12.68;2.78;;;18.00;79.70;;;;;;5033470;28;19970;-76
2022/11/16 10:11:40;;;;;;;15.80;3.45;;;18.00;79.80;;;;;;5033588;28;20084;-76
2022/11/16 10:14:31;;;;;;;15.18;2.80;;;18.00;79.80;;;;;;5034639;28;20017;-76
2022/11/16 10:17:35;;;;;;;10.52;2.55;;;18.00;79.70;;;;;;5034456;28;20469;-76
2022/11/16 10:20:39;;;;;;;15.25;3.58;;;18.00;79.80;;;;;;5032198;28;20037;-76
2022/11/16 10:23:13;;;;;;;13.00;2.78;;;18.00;79.80;;;;;;5032142;28;20040;-76
2022/11/16 10:25:43;;;;;;;14.13;3.53;;;18.00;79.80;;;;;;5032231;28;20104;-76
2022/11/16 10:28:23;;;;;;;13.25;2.78;;;18.00;79.80;;;;;;5015482;28;20049;-76
2022/11/16 10:31:13;;;;;;;15.32;2.67;;;18.00;79.80;;;;;;5032049;28;20407;-76
2022/11/16 10:33:39;;;;;;;12.48;2.78;;;18.00;79.70;;;;;;5017910;28;20124;-76
2022/11/16 10:36:09;;;;;;;16.77;2.78;;;18.00;79.80;;;;;;5014781;28;20055;-76
2022/11/16 10:38:35;;;;;;;12.35;3.13;;;18.00;79.70;;;;;;5016024;28;20124;-76
2022/11/16 10:41:15;;;;;;;11.27;2.72;;;18.00;79.80;;;;;;5015202;28;20138;-76
2022/11/16 10:43:41;;;;;;;20.77;3.95;;;18.00;79.80;;;;;;5015912;28;20065;-76
2022/11/16 10:46:20;;;;;;;12.80;2.50;;;18.00;79.70;;;;;;5015117;28;20381;-76
2022/11/16 10:49:04;;;;;;;11.73;2.70;;;18.00;79.80;;;;;;5031825;28;20116;-76
2022/11/16 10:51:30;;;;;;;14.55;3.15;;;18.00;79.70;;;;;;5016861;28;20036;-76
2022/11/16 10:53:56;;;;;;;7.97;2.75;;;18.00;79.70;;;;;;5031819;28;20037;-76
2022/11/16 10:56:36;;;;;;;12.23;2.90;;;18.00;79.70;;;;;;5019838;28;20064;-76
2022/11/16 10:59:06;;;;;;;10.55;2.50;;;18.00;79.70;;;;;;5035924;28;20045;-76
2022/11/16 11:01:43;;;;;;;12.88;2.90;;;18.00;79.70;;;;;;5036173;28;20491;-76
2022/11/16 11:04:24;;;;;;;15.82;3.15;;;18.00;79.70;;;;;;5053458;28;20021;-76
2022/11/16 11:07:00;;;;;;;13.07;2.70;;;18.00;79.70;;;;;;5053565;28;20025;-76
2022/11/16 11:09:30;;;;;;;13.68;3.25;;;18.00;79.70;;;;;;5036703;28;20104;-76
2022/11/16 11:12:36;;;;;;;13.80;3.13;;;18.00;79.70;;;;;;5053367;28;20053;-76
2022/11/16 11:15:11;;;;;;;10.27;2.40;;;18.00;79.70;;;;;;5053304;28;20104;-76
2022/11/16 11:17:43;;;;;;;10.30;2.50;;;18.00;79.70;;;;;;5053754;28;20449;-76
2022/11/16 11:20:27;;;;;;;9.43;2.65;;;18.00;79.60;;;;;;5035495;28;20052;-76
2022/11/16 11:22:54;;;;;;;14.07;2.35;;;18.00;79.70;;;;;;5051949;28;20032;-76
2022/11/16 11:25:24;;;;;;;10.77;2.50;;;18.00;79.70;;;;;;5035420;28;20074;-76
2022/11/16 11:27:50;;;;;;;13.20;3.17;;;18.00;79.70;;;;;;5051878;28;20155;-76
2022/11/16 11:30:20;;;;;;;13.55;2.78;;;18.00;79.60;;;;;;5051864;28;20025;-76
2022/11/16 11:32:45;;;;;;;12.85;2.88;;;18.00;79.60;;;;;;5035305;28;20108;-76
2022/11/16 11:35:29;;;;;;;11.50;2.20;;;18.00;79.60;;;;;;5035064;28;20179;-76
2022/11/16 11:37:56;;;;;;;10.00;2.58;;;18.00;79.70;;;;;;5053086;28;20029;-76
2022/11/16 11:40:26;;;;;;;9.32;2.58;;;18.00;79.60;;;;;;5052574;28;20422;-76
2022/11/16 11:42:54;;;;;;;14.43;3.03;;;18.00;79.60;;;;;;5052828;28;20110;-76
2022/11/16 11:45:22;;;;;;;10.88;2.70;;;18.00;79.70;;;;;;5051500;28;20379;-76
2022/11/16 11:47:55;;;;;;;9.88;2.60;;;18.00;79.70;;;;;;5051593;28;20032;-76
2022/11/16 11:50:25;;;;;;;13.20;2.45;;;18.00;79.70;;;;;;5035359;28;20397;-76
2022/11/16 11:53:01;;;;;;;11.57;3.15;;;18.00;79.60;;;;;;5039527;28;20446;-76
2022/11/16 11:55:27;;;;;;;10.10;2.50;;;18.00;79.60;;;;;;5031427;28;20476;-76
2022/11/16 11:57:52;;;;;;;10.85;2.92;;;18.00;79.60;;;;;;5031350;28;20041;-76
2022/11/16 12:00:18;;;;;;;7.93;2.08;;;18.00;79.60;;;;;;5045239;28;20017;-76
2022/11/16 12:03:16;;;;;;;8.45;2.50;;;18.00;79.60;;;;;;5051545;28;20024;-76
2022/11/16 12:06:26;;;;;;;8.48;2.00;;;18.00;79.60;;;;;;5050432;28;20048;-76
2022/11/16 12:09:08;;;;;;;7.65;2.47;;;18.00;79.60;;;;;;5019750;28;20041;-76
2022/11/16 12:11:56;;;;;;;10.43;3.42;;;18.00;79.60;;;;;;5035122;28;20104;-76
2022/11/16 12:14:31;;;;;;;10.73;2.78;;;18.00;80.50;;;;;;5033542;28;20061;-76
2022/11/16 12:17:06;;;;;;;7.53;2.75;;;18.00;79.60;;;;;;5033475;28;20029;-76
2022/11/16 12:19:34;;;;;;;7.13;1.95;;;18.00;79.60;;;;;;5033567;28;20040;-76
2022/11/16 12:22:08;;;;;;;11.55;2.78;;;18.00;79.60;;;;;;5050018;28;20024;-76
2022/11/16 12:25:00;;;;;;;10.02;2.20;;;18.00;79.60;;;;;;5050105;28;20068;-76
2022/11/16 12:27:38;;;;;;;9.65;2.50;;;18.00;79.60;;;;;;5033492;28;20427;-76
2022/11/16 12:30:18;;;;;;;13.50;2.55;;;18.00;79.60;;;;;;5034275;28;20044;-76
2022/11/16 12:33:11;;;;;;;11.10;2.00;;;18.00;79.60;;;;;;5033406;28;20025;-76
2022/11/16 12:35:39;;;;;;;;;;;18.00;79.60;;;;;;5036401;28;20048;-76
2022/11/16 12:38:26;;;;;;;10.52;2.33;;;18.00;79.60;;;;;;5033296;28;19904;-76
2022/11/16 12:41:10;;;;;;;10.05;2.47;;;18.00;79.50;;;;;;5050046;28;20025;-76
2022/11/16 12:44:05;;;;;;;7.97;2.33;;;18.00;79.60;;;;;;5048865;28;20033;-76
2022/11/16 12:46:54;;;;;;;7.47;2.28;;;18.00;79.50;;;;;;5051097;28;20029;-76
2022/11/16 12:49:44;;;;;;;10.73;2.30;;;18.00;79.50;;;;;;5050800;28;20033;-76
2022/11/16 12:52:16;;;;;;;10.02;2.53;;;18.00;79.50;;;;;;5045674;28;20030;-76
2022/11/16 12:55:05;;;;;;;11.73;2.70;;;18.00;79.60;;;;;;5032060;28;20032;-76
2022/11/16 12:57:46;;;;;;;8.35;1.98;;;17.90;79.40;;;;;;5030129;28;20519;-76
2022/11/16 13:00:15;;;;;;;9.35;2.22;;;18.00;79.50;;;;;;5031155;28;20041;-76
2022/11/16 13:02:53;;;;;;;9.55;2.30;;;18.00;79.50;;;;;;5021022;28;20037;-76
2022/11/16 13:05:21;;;;;;;8.82;1.98;;;18.00;79.40;;;;;;5020345;28;20063;-76
2022/11/16 13:07:52;;;;;;;7.43;1.98;;;18.00;79.40;;;;;;5053508;28;20138;-76
2022/11/16 13:10:21;;;;;;;6.13;2.45;;;18.00;79.40;;;;;;5036668;28;20032;-76
2022/11/16 13:12:50;;;;;;;8.77;2.30;;;18.00;79.40;;;;;;5036845;28;20479;-76
2022/11/16 13:15:18;;;;;;;7.03;2.22;;;18.00;79.40;;;;;;5036722;28;20103;-76
2022/11/16 13:17:57;;;;;;;8.88;2.65;;;18.00;79.40;;;;;;5020508;28;20021;-76
2022/11/16 13:20:38;;;;;;;7.85;2.20;;;18.00;79.30;;;;;;5021334;28;20033;-76
2022/11/16 13:23:19;;;;;;;7.93;2.13;;;18.00;79.30;;;;;;5020691;28;20029;-76
2022/11/16 13:26:13;;;;;;;6.55;2.08;;;18.00;79.30;;;;;;5022401;28;20041;-76
2022/11/16 13:29:03;;;;;;;8.00;2.50;;;18.00;79.30;;;;;;5029464;28;20040;-76
2022/11/16 13:31:37;;;;;;;7.25;2.35;;;18.00;79.30;;;;;;5029545;28;20049;-76
2022/11/16 13:34:23;;;;;;;8.18;2.00;;;18.00;79.20;;;;;;5024274;28;20044;-76
2022/11/16 13:36:48;;;;;;;6.13;1.98;;;18.00;79.40;;;;;;5054146;28;20028;-76
2022/11/16 13:39:16;;;;;;;4.03;1.90;;;18.00;79.30;;;;;;5037387;28;20021;-76
2022/11/16 13:41:43;;;;;;;8.10;1.70;;;18.00;79.30;;;;;;5054137;28;20017;-76